THY5WB EGLL-EBAW
Flight info
| Callsign | THY5WB |
|---|---|
| Flight time | 0h 40m |
| Altitude | 23000 |
| Route | DET Q70 KOK KOK6A |
| Aircraft | B738/M-SDE2E3FGHIRWXY/LB1 |
Departure
| Time | 2026-04-20 20:46 |
|---|---|
| Airport | London Heathrow Airport (EGLL) |
Arrival
| Time | 2026-04-20 21:26 |
|---|---|
| Airport | Antwerp International Airport (Deurne) (EBAW) |
| Time | Latitude | Longitude | Altitude | Speed | Heading |
|---|---|---|---|---|---|
| 2026-04-20 20:14 | 51.47220 | -0.47708 | 93 ft | 0 kts | 90° |
| 2026-04-20 20:34 | 51.47219 | -0.47729 | 92 ft | 2 kts | 90° |
| 2026-04-20 20:35 | 51.47219 | -0.47753 | 92 ft | 2 kts | 90° |
| 2026-04-20 20:35 | 51.47219 | -0.47777 | 92 ft | 2 kts | 90° |
| 2026-04-20 20:35 | 51.47219 | -0.47801 | 92 ft | 2 kts | 90° |
| 2026-04-20 20:35 | 51.47219 | -0.47825 | 92 ft | 2 kts | 90° |
| 2026-04-20 20:36 | 51.47219 | -0.47850 | 92 ft | 2 kts | 108° |
| 2026-04-20 20:36 | 51.47228 | -0.47869 | 92 ft | 2 kts | 150° |
| 2026-04-20 20:36 | 51.47238 | -0.47874 | 92 ft | 0 kts | 176° |
| 2026-04-20 20:36 | 51.47245 | -0.47874 | 92 ft | 0 kts | 180° |
| 2026-04-20 20:39 | 51.47232 | -0.47873 | 92 ft | 8 kts | 177° |
| 2026-04-20 20:40 | 51.47135 | -0.47870 | 92 ft | 16 kts | 179° |
| 2026-04-20 20:40 | 51.47033 | -0.47868 | 92 ft | 12 kts | 180° |
| 2026-04-20 20:40 | 51.46956 | -0.47867 | 92 ft | 9 kts | 180° |
| 2026-04-20 20:40 | 51.46903 | -0.47870 | 92 ft | 6 kts | 183° |
| 2026-04-20 20:41 | 51.46863 | -0.47872 | 92 ft | 4 kts | 180° |
| 2026-04-20 20:41 | 51.46817 | -0.47868 | 92 ft | 10 kts | 178° |
| 2026-04-20 20:41 | 51.46730 | -0.47866 | 92 ft | 11 kts | 180° |
| 2026-04-20 20:41 | 51.46658 | -0.47907 | 92 ft | 10 kts | 244° |
| 2026-04-20 20:42 | 51.46651 | -0.48074 | 92 ft | 21 kts | 271° |
| 2026-04-20 20:42 | 51.46651 | -0.48316 | 92 ft | 19 kts | 270° |
| 2026-04-20 20:42 | 51.46625 | -0.48458 | 92 ft | 7 kts | 207° |
| 2026-04-20 20:42 | 51.46607 | -0.48465 | 92 ft | 0 kts | 186° |
| 2026-04-20 20:43 | 51.46595 | -0.48466 | 92 ft | 9 kts | 182° |
| 2026-04-20 20:44 | 51.46502 | -0.48454 | 92 ft | 11 kts | 154° |
| 2026-04-20 20:44 | 51.46478 | -0.48356 | 92 ft | 11 kts | 91° |
| 2026-04-20 20:44 | 51.46479 | -0.48206 | 92 ft | 12 kts | 90° |
| 2026-04-20 20:44 | 51.46479 | -0.48112 | 92 ft | 0 kts | 90° |
| 2026-04-20 20:45 | 51.46480 | -0.48085 | 92 ft | 18 kts | 90° |
| 2026-04-20 20:45 | 51.46484 | -0.47420 | 92 ft | 98 kts | 90° |
| 2026-04-20 20:46 | 51.46487 | -0.45947 | 96 ft | 161 kts | 88° |
| 2026-04-20 20:46 | 51.46510 | -0.44078 | 734 ft | 169 kts | 87° |
| 2026-04-20 20:46 | 51.46548 | -0.42212 | 1484 ft | 176 kts | 87° |
| 2026-04-20 20:46 | 51.46234 | -0.40209 | 1906 ft | 201 kts | 123° |
| 2026-04-20 20:47 | 51.45137 | -0.38627 | 2243 ft | 224 kts | 140° |
| 2026-04-20 20:47 | 51.44100 | -0.36694 | 2593 ft | 238 kts | 112° |
| 2026-04-20 20:47 | 51.43589 | -0.34169 | 3276 ft | 244 kts | 101° |
| 2026-04-20 20:47 | 51.43206 | -0.31455 | 3819 ft | 259 kts | 99° |
| 2026-04-20 20:48 | 51.42829 | -0.28637 | 4638 ft | 263 kts | 99° |
| 2026-04-20 20:48 | 51.42432 | -0.25731 | 5357 ft | 271 kts | 99° |
| 2026-04-20 20:48 | 51.42027 | -0.22769 | 5942 ft | 280 kts | 99° |
| 2026-04-20 20:48 | 51.41606 | -0.19686 | 6009 ft | 282 kts | 99° |
| 2026-04-20 20:49 | 51.41188 | -0.16661 | 6199 ft | 276 kts | 99° |
| 2026-04-20 20:49 | 51.40769 | -0.13603 | 6289 ft | 283 kts | 99° |
| 2026-04-20 20:49 | 51.40348 | -0.10551 | 6281 ft | 281 kts | 99° |
| 2026-04-20 20:49 | 51.39925 | -0.07491 | 6282 ft | 280 kts | 99° |
| 2026-04-20 20:50 | 51.39504 | -0.04449 | 6285 ft | 280 kts | 99° |
| 2026-04-20 20:50 | 51.39081 | -0.01409 | 6287 ft | 280 kts | 99° |
| 2026-04-20 20:50 | 51.38661 | 0.01609 | 6290 ft | 280 kts | 99° |
| 2026-04-20 20:50 | 51.38235 | 0.04671 | 6290 ft | 280 kts | 99° |
| 2026-04-20 20:51 | 51.37809 | 0.07713 | 6290 ft | 280 kts | 99° |
| 2026-04-20 20:51 | 51.37383 | 0.10755 | 6290 ft | 280 kts | 99° |
| 2026-04-20 20:51 | 51.36957 | 0.13796 | 6290 ft | 280 kts | 99° |
| 2026-04-20 20:51 | 51.36533 | 0.16808 | 6290 ft | 279 kts | 99° |
| 2026-04-20 20:52 | 51.36106 | 0.19843 | 6290 ft | 279 kts | 99° |
| 2026-04-20 20:52 | 51.35678 | 0.22872 | 6290 ft | 279 kts | 99° |
| 2026-04-20 20:52 | 51.35249 | 0.25909 | 6290 ft | 280 kts | 99° |
| 2026-04-20 20:52 | 51.34817 | 0.28956 | 6290 ft | 280 kts | 99° |
| 2026-04-20 20:53 | 51.34391 | 0.31959 | 6290 ft | 281 kts | 99° |
| 2026-04-20 20:53 | 51.33957 | 0.35009 | 6290 ft | 281 kts | 99° |
| 2026-04-20 20:53 | 51.33519 | 0.38081 | 6290 ft | 281 kts | 99° |
| 2026-04-20 20:53 | 51.33088 | 0.41109 | 6292 ft | 283 kts | 99° |
| 2026-04-20 20:54 | 51.32649 | 0.44172 | 6289 ft | 283 kts | 100° |
| 2026-04-20 20:54 | 51.32208 | 0.47242 | 6290 ft | 281 kts | 99° |
| 2026-04-20 20:54 | 51.31770 | 0.50291 | 6290 ft | 282 kts | 99° |
| 2026-04-20 20:54 | 51.31327 | 0.53354 | 6289 ft | 280 kts | 100° |
| 2026-04-20 20:55 | 51.30899 | 0.56379 | 6292 ft | 282 kts | 100° |
| 2026-04-20 20:55 | 51.30471 | 0.59464 | 6291 ft | 283 kts | 95° |
| 2026-04-20 20:55 | 51.30299 | 0.62599 | 6621 ft | 291 kts | 89° |
| 2026-04-20 20:55 | 51.30199 | 0.65804 | 7528 ft | 289 kts | 90° |
| 2026-04-20 20:56 | 51.30099 | 0.69031 | 8104 ft | 298 kts | 91° |
| 2026-04-20 20:56 | 51.29978 | 0.72360 | 8825 ft | 301 kts | 92° |
| 2026-04-20 20:56 | 51.29852 | 0.75697 | 9463 ft | 307 kts | 93° |
| 2026-04-20 20:56 | 51.29721 | 0.79117 | 10153 ft | 310 kts | 93° |
| 2026-04-20 20:57 | 51.29590 | 0.82594 | 10656 ft | 321 kts | 94° |
| 2026-04-20 20:57 | 51.29447 | 0.86294 | 10794 ft | 346 kts | 94° |
| 2026-04-20 20:57 | 51.29295 | 0.90237 | 11085 ft | 364 kts | 94° |
| 2026-04-20 20:57 | 51.29138 | 0.94306 | 11603 ft | 373 kts | 95° |
| 2026-04-20 20:58 | 51.28978 | 0.98444 | 12206 ft | 380 kts | 95° |
| 2026-04-20 20:58 | 51.28812 | 1.02666 | 12881 ft | 384 kts | 95° |
| 2026-04-20 20:58 | 51.28640 | 1.06962 | 13526 ft | 390 kts | 96° |
| 2026-04-20 20:58 | 51.28464 | 1.11317 | 14208 ft | 395 kts | 96° |
| 2026-04-20 20:59 | 51.28286 | 1.15696 | 14865 ft | 400 kts | 96° |
| 2026-04-20 20:59 | 51.28105 | 1.20114 | 15528 ft | 404 kts | 96° |
| 2026-04-20 20:59 | 51.27917 | 1.24639 | 16145 ft | 411 kts | 96° |
| 2026-04-20 20:59 | 51.27725 | 1.29222 | 16750 ft | 416 kts | 97° |
| 2026-04-20 21:00 | 51.27529 | 1.33814 | 17327 ft | 422 kts | 97° |
| 2026-04-20 21:00 | 51.27327 | 1.38548 | 17904 ft | 428 kts | 97° |
| 2026-04-20 21:00 | 51.27123 | 1.43254 | 18450 ft | 433 kts | 97° |
| 2026-04-20 21:00 | 51.26911 | 1.48101 | 18990 ft | 439 kts | 97° |
| 2026-04-20 21:01 | 51.26696 | 1.52986 | 19506 ft | 444 kts | 97° |
| 2026-04-20 21:01 | 51.26472 | 1.57931 | 20011 ft | 450 kts | 97° |
| 2026-04-20 21:01 | 51.26242 | 1.62957 | 20506 ft | 455 kts | 97° |
| 2026-04-20 21:01 | 51.26009 | 1.68020 | 20993 ft | 460 kts | 98° |
| 2026-04-20 21:02 | 51.25778 | 1.73080 | 21447 ft | 465 kts | 98° |
| 2026-04-20 21:02 | 51.25542 | 1.78250 | 21899 ft | 470 kts | 98° |
| 2026-04-20 21:02 | 51.25298 | 1.83508 | 22340 ft | 474 kts | 98° |
| 2026-04-20 21:02 | 51.25051 | 1.88786 | 22768 ft | 479 kts | 98° |
| 2026-04-20 21:03 | 51.24802 | 1.94064 | 23158 ft | 481 kts | 98° |
| 2026-04-20 21:03 | 51.24548 | 1.99373 | 23242 ft | 485 kts | 98° |
| 2026-04-20 21:03 | 51.24290 | 2.04755 | 23235 ft | 486 kts | 98° |
| 2026-04-20 21:03 | 51.24035 | 2.10073 | 23236 ft | 484 kts | 98° |
| 2026-04-20 21:04 | 51.23777 | 2.15436 | 23237 ft | 484 kts | 98° |
| 2026-04-20 21:04 | 51.23514 | 2.20824 | 23237 ft | 484 kts | 98° |
| 2026-04-20 21:04 | 51.23253 | 2.26122 | 23237 ft | 484 kts | 98° |
| 2026-04-20 21:04 | 51.22968 | 2.31472 | 23236 ft | 483 kts | 99° |
| 2026-04-20 21:05 | 51.22485 | 2.36727 | 23233 ft | 479 kts | 108° |
| 2026-04-20 21:05 | 51.21420 | 2.41725 | 23231 ft | 466 kts | 124° |
| 2026-04-20 21:05 | 51.19672 | 2.45891 | 23248 ft | 452 kts | 137° |
| 2026-04-20 21:05 | 51.17619 | 2.49718 | 23244 ft | 450 kts | 139° |
| 2026-04-20 21:06 | 51.15588 | 2.53451 | 23236 ft | 451 kts | 139° |
| 2026-04-20 21:06 | 51.13559 | 2.57263 | 23230 ft | 453 kts | 135° |
| 2026-04-20 21:06 | 51.11941 | 2.61596 | 23225 ft | 469 kts | 118° |
| 2026-04-20 21:06 | 51.10899 | 2.66606 | 23253 ft | 475 kts | 112° |
| 2026-04-20 21:07 | 51.10097 | 2.71735 | 23232 ft | 480 kts | 104° |
| 2026-04-20 21:07 | 51.09868 | 2.77022 | 23230 ft | 486 kts | 91° |
| 2026-04-20 21:07 | 51.10096 | 2.82380 | 23243 ft | 488 kts | 87° |
| 2026-04-20 21:07 | 51.10429 | 2.87730 | 23236 ft | 489 kts | 86° |
| 2026-04-20 21:08 | 51.10746 | 2.93141 | 23234 ft | 489 kts | 87° |
| 2026-04-20 21:08 | 51.11037 | 2.98520 | 23235 ft | 489 kts | 87° |
| 2026-04-20 21:08 | 51.11319 | 3.03869 | 23235 ft | 489 kts | 86° |
| 2026-04-20 21:08 | 51.11598 | 3.09270 | 23236 ft | 490 kts | 86° |
| 2026-04-20 21:09 | 51.11872 | 3.14651 | 23213 ft | 482 kts | 86° |
| 2026-04-20 21:09 | 51.12136 | 3.19872 | 22593 ft | 477 kts | 86° |
| 2026-04-20 21:09 | 51.12395 | 3.25145 | 21796 ft | 476 kts | 86° |
| 2026-04-20 21:09 | 51.12646 | 3.30347 | 21000 ft | 474 kts | 86° |
| 2026-04-20 21:10 | 51.12894 | 3.35600 | 20193 ft | 472 kts | 86° |
| 2026-04-20 21:10 | 51.13134 | 3.40726 | 19399 ft | 468 kts | 86° |
| 2026-04-20 21:10 | 51.13371 | 3.45844 | 18605 ft | 465 kts | 86° |
| 2026-04-20 21:10 | 51.13607 | 3.50930 | 17796 ft | 452 kts | 86° |
| 2026-04-20 21:11 | 51.13835 | 3.55857 | 17058 ft | 442 kts | 86° |
| 2026-04-20 21:11 | 51.14053 | 3.60667 | 16292 ft | 439 kts | 86° |
| 2026-04-20 21:11 | 51.14267 | 3.65470 | 15536 ft | 434 kts | 87° |
| 2026-04-20 21:11 | 51.14482 | 3.70282 | 14777 ft | 429 kts | 87° |
| 2026-04-20 21:12 | 51.14689 | 3.74933 | 14042 ft | 424 kts | 87° |
| 2026-04-20 21:12 | 51.14894 | 3.79607 | 13300 ft | 418 kts | 87° |
| 2026-04-20 21:12 | 51.15090 | 3.84148 | 12576 ft | 412 kts | 87° |
| 2026-04-20 21:12 | 51.15282 | 3.88649 | 11858 ft | 405 kts | 87° |
| 2026-04-20 21:13 | 51.15468 | 3.93081 | 11218 ft | 397 kts | 86° |
| 2026-04-20 21:13 | 51.15646 | 3.97354 | 10852 ft | 382 kts | 86° |
| 2026-04-20 21:13 | 51.15817 | 4.01487 | 10680 ft | 364 kts | 86° |
| 2026-04-20 21:13 | 51.15979 | 4.05392 | 10515 ft | 347 kts | 86° |
| 2026-04-20 21:14 | 51.16134 | 4.09215 | 10189 ft | 338 kts | 85° |
| 2026-04-20 21:14 | 51.16280 | 4.12877 | 9745 ft | 334 kts | 85° |
| 2026-04-20 21:14 | 51.16428 | 4.16548 | 9304 ft | 324 kts | 85° |
| 2026-04-20 21:14 | 51.16620 | 4.20021 | 8902 ft | 308 kts | 81° |
| 2026-04-20 21:15 | 51.16924 | 4.23341 | 8517 ft | 303 kts | 80° |
| 2026-04-20 21:15 | 51.17223 | 4.26584 | 8131 ft | 301 kts | 79° |
| 2026-04-20 21:15 | 51.17514 | 4.29853 | 7744 ft | 298 kts | 79° |
| 2026-04-20 21:15 | 51.17809 | 4.33128 | 7357 ft | 295 kts | 79° |
| 2026-04-20 21:16 | 51.18093 | 4.36331 | 6975 ft | 287 kts | 79° |
| 2026-04-20 21:16 | 51.18364 | 4.39412 | 6621 ft | 281 kts | 79° |
| 2026-04-20 21:16 | 51.18635 | 4.42511 | 6253 ft | 279 kts | 79° |
| 2026-04-20 21:16 | 51.18902 | 4.45554 | 5949 ft | 275 kts | 79° |
| 2026-04-20 21:17 | 51.19146 | 4.48502 | 5843 ft | 263 kts | 80° |
| 2026-04-20 21:17 | 51.19353 | 4.51339 | 5625 ft | 261 kts | 80° |
| 2026-04-20 21:17 | 51.19562 | 4.54260 | 5243 ft | 264 kts | 80° |
| 2026-04-20 21:17 | 51.19782 | 4.57149 | 4902 ft | 262 kts | 81° |
| 2026-04-20 21:18 | 51.19994 | 4.59994 | 4599 ft | 259 kts | 81° |
| 2026-04-20 21:18 | 51.20200 | 4.62846 | 4344 ft | 254 kts | 80° |
| 2026-04-20 21:18 | 51.20399 | 4.65602 | 4004 ft | 253 kts | 81° |
| 2026-04-20 21:18 | 51.20607 | 4.68387 | 3692 ft | 250 kts | 81° |
| 2026-04-20 21:19 | 51.20810 | 4.71138 | 3361 ft | 249 kts | 81° |
| 2026-04-20 21:19 | 51.20995 | 4.73812 | 3229 ft | 239 kts | 85° |
| 2026-04-20 21:19 | 51.20781 | 4.76406 | 3056 ft | 235 kts | 107° |
| 2026-04-20 21:20 | 51.19429 | 4.81033 | 2987 ft | 235 kts | 135° |
| 2026-04-20 21:20 | 51.18034 | 4.82315 | 2992 ft | 236 kts | 168° |
| 2026-04-20 21:20 | 51.16418 | 4.82292 | 2996 ft | 235 kts | 196° |
| 2026-04-20 21:20 | 51.14862 | 4.81428 | 2995 ft | 234 kts | 202° |
| 2026-04-20 21:21 | 51.13394 | 4.80381 | 2975 ft | 231 kts | 217° |
| 2026-04-20 21:21 | 51.12424 | 4.78480 | 2970 ft | 216 kts | 253° |
| 2026-04-20 21:21 | 51.12301 | 4.76239 | 2960 ft | 202 kts | 282° |
| 2026-04-20 21:21 | 51.12708 | 4.74107 | 2917 ft | 198 kts | 292° |
| 2026-04-20 21:22 | 51.13155 | 4.72129 | 2815 ft | 180 kts | 292° |
| 2026-04-20 21:22 | 51.13567 | 4.70322 | 2668 ft | 165 kts | 292° |
| 2026-04-20 21:22 | 51.13951 | 4.68622 | 2528 ft | 165 kts | 292° |
| 2026-04-20 21:22 | 51.14337 | 4.66918 | 2374 ft | 159 kts | 292° |
| 2026-04-20 21:23 | 51.14686 | 4.65369 | 2221 ft | 142 kts | 292° |
| 2026-04-20 21:23 | 51.15021 | 4.63892 | 2124 ft | 141 kts | 292° |
| 2026-04-20 21:23 | 51.15351 | 4.62420 | 2000 ft | 142 kts | 292° |
| 2026-04-20 21:23 | 51.15688 | 4.60922 | 1808 ft | 146 kts | 292° |
| 2026-04-20 21:24 | 51.16031 | 4.59429 | 1594 ft | 140 kts | 292° |
| 2026-04-20 21:24 | 51.16365 | 4.57951 | 1468 ft | 144 kts | 292° |
| 2026-04-20 21:24 | 51.16703 | 4.56458 | 1258 ft | 143 kts | 292° |
| 2026-04-20 21:24 | 51.17044 | 4.54957 | 1080 ft | 143 kts | 292° |
| 2026-04-20 21:25 | 51.17379 | 4.53476 | 891 ft | 140 kts | 292° |
| 2026-04-20 21:25 | 51.17705 | 4.52035 | 700 ft | 141 kts | 292° |
| 2026-04-20 21:25 | 51.18042 | 4.50548 | 507 ft | 142 kts | 292° |
| 2026-04-20 21:25 | 51.18377 | 4.49061 | 326 ft | 139 kts | 292° |
| 2026-04-20 21:26 | 51.18689 | 4.47670 | 110 ft | 132 kts | 292° |
| 2026-04-20 21:26 | 51.18969 | 4.46438 | 49 ft | 90 kts | 290° |
| 2026-04-20 21:26 | 51.19105 | 4.45840 | 48 ft | 29 kts | 289° |
| 2026-04-20 21:26 | 51.19081 | 4.45663 | 48 ft | 13 kts | 233° |
| 2026-04-20 21:27 | 51.19070 | 4.45642 | 48 ft | 0 kts | 231° |
| 2026-04-20 21:27 | 51.19070 | 4.45641 | 48 ft | 0 kts | 231° |
| 2026-04-20 21:28 | 51.19056 | 4.45614 | 48 ft | 4 kts | 231° |
| 2026-04-20 21:28 | 51.19036 | 4.45575 | 48 ft | 5 kts | 231° |
| 2026-04-20 21:28 | 51.18986 | 4.45474 | 48 ft | 13 kts | 234° |
| 2026-04-20 21:28 | 51.18939 | 4.45402 | 48 ft | 6 kts | 184° |
| 2026-04-20 21:29 | 51.18905 | 4.45398 | 48 ft | 7 kts | 217° |
| 2026-04-20 21:29 | 51.18877 | 4.45316 | 48 ft | 8 kts | 257° |
| 2026-04-20 21:29 | 51.18863 | 4.45247 | 48 ft | 4 kts | 219° |
| 2026-04-20 21:29 | 51.18833 | 4.45251 | 48 ft | 1 kts | 153° |
| 2026-04-20 21:30 | 51.18832 | 4.45252 | 48 ft | 0 kts | 149° |